Time;durP1;ratioP1;P1;durP2;ratioP2;P2;SDS_P1;SDS_P2;PMS_P1;PMS_P2;Temp;Humidity;BMP_temperature;BMP_pressure;BME280_temperature;BME280_humidity;BME280_pressure;Samples;Min_cycle;Max_cycle;Signal;HPM_P1;HPM_P2
2023/10/30 00:02:59;;;;;;;10.07;8.77;;;23.30;89.10;;;;;;6325032;27;87925;-68
2023/10/30 00:06:02;;;;;;;9.70;8.50;;;23.30;89.10;;;;;;6328375;27;89402;-68
2023/10/30 00:09:04;;;;;;;9.88;8.88;;;23.30;89.00;;;;;;6319679;27;88357;-68
2023/10/30 00:12:07;;;;;;;9.57;8.57;;;23.30;89.00;;;;;;6320581;27;89113;-68
2023/10/30 00:15:09;;;;;;;9.07;8.18;;;23.30;89.00;;;;;;6332518;27;89041;-68
2023/10/30 00:18:11;;;;;;;9.40;8.50;;;23.30;89.10;;;;;;6325133;27;89989;-68
2023/10/30 00:21:15;;;;;;;9.15;8.23;;;23.30;89.00;;;;;;6326393;27;89035;-70
2023/10/30 00:24:17;;;;;;;9.38;8.43;;;23.30;89.10;;;;;;6315135;27;89142;-69
2023/10/30 00:27:19;;;;;;;9.48;8.23;;;23.30;89.00;;;;;;6325554;27;89055;-69
2023/10/30 00:30:21;;;;;;;9.07;8.18;;;23.30;88.80;;;;;;6312982;27;89076;-68
2023/10/30 00:33:23;;;;;;;9.23;8.32;;;23.30;88.90;;;;;;6322565;27;89006;-69
2023/10/30 00:36:27;;;;;;;9.15;8.25;;;23.30;88.80;;;;;;6317164;27;89352;-69
2023/10/30 00:39:32;;;;;;;9.07;8.07;;;23.30;88.60;;;;;;6322212;27;88225;-69
2023/10/30 00:42:34;;;;;;;9.10;8.20;;;23.30;88.60;;;;;;6320248;27;89183;-69
2023/10/30 00:45:36;;;;;;;9.30;8.40;;;23.20;88.50;;;;;;6327446;27;89020;-69
2023/10/30 00:48:38;;;;;;;9.00;8.10;;;23.20;88.40;;;;;;6330811;27;89941;-69
2023/10/30 00:51:41;;;;;;;9.00;8.10;;;23.20;88.30;;;;;;6327928;27;89146;-69
2023/10/30 00:54:43;;;;;;;8.68;7.88;;;23.20;88.30;;;;;;6323792;27;89189;-68
2023/10/30 00:57:45;;;;;;;9.45;8.45;;;23.20;88.40;;;;;;6322096;27;87995;-69
2023/10/30 01:00:47;;;;;;;8.90;8.00;;;23.20;88.30;;;;;;6331280;27;89043;-68
2023/10/30 01:03:49;;;;;;;9.00;8.10;;;23.20;88.30;;;;;;6306343;27;89455;-68
2023/10/30 01:06:52;;;;;;;9.68;8.68;;;23.20;88.30;;;;;;6319438;27;89011;-68
2023/10/30 01:09:54;;;;;;;9.27;8.32;;;23.20;88.30;;;;;;6323655;27;87264;-69
2023/10/30 01:12:57;;;;;;;8.30;7.50;;;23.10;88.10;;;;;;6326672;27;90427;-68
2023/10/30 01:15:58;;;;;;;8.88;7.70;;;23.10;88.10;;;;;;6329410;27;89005;-68
2023/10/30 01:19:00;;;;;;;8.57;7.72;;;23.10;88.20;;;;;;6324618;27;89965;-69
2023/10/30 01:22:04;;;;;;;8.05;7.25;;;23.10;88.20;;;;;;6315420;27;89284;-69
2023/10/30 01:25:06;;;;;;;8.80;7.75;;;23.20;88.30;;;;;;6331690;27;89011;-68
2023/10/30 01:28:08;;;;;;;8.52;7.22;;;23.10;88.20;;;;;;6317109;27;89290;-69
2023/10/30 01:31:10;;;;;;;8.15;7.35;;;23.10;87.90;;;;;;6315023;27;89039;-68
2023/10/30 01:34:12;;;;;;;8.45;7.50;;;23.10;87.90;;;;;;6317832;27;88961;-67
2023/10/30 01:37:20;;;;;;;8.75;7.88;;;23.10;87.80;;;;;;6320730;27;89106;-68
2023/10/30 01:40:22;;;;;;;8.98;7.05;;;23.10;87.90;;;;;;6321816;27;88390;-68
2023/10/30 01:43:31;;;;;;;8.23;7.40;;;23.10;87.70;;;;;;6319576;27;89008;-68
2023/10/30 01:46:33;;;;;;;7.35;6.63;;;23.10;87.70;;;;;;6325109;27;90909;-68
2023/10/30 01:49:35;;;;;;;8.52;7.72;;;23.10;87.70;;;;;;6327290;27;90147;-69
2023/10/30 01:52:39;;;;;;;7.93;7.13;;;23.10;87.70;;;;;;6320523;27;88623;-68
2023/10/30 01:55:41;;;;;;;7.68;6.88;;;23.00;87.50;;;;;;6313866;27;89318;-67
2023/10/30 01:58:44;;;;;;;7.97;7.18;;;23.10;87.60;;;;;;6325072;27;88008;-69
2023/10/30 02:01:46;;;;;;;8.30;7.18;;;23.00;87.50;;;;;;6318966;27;89105;-68
2023/10/30 02:04:48;;;;;;;8.25;7.40;;;23.10;87.40;;;;;;6327433;27;89262;-68
2023/10/30 02:07:52;;;;;;;7.78;7.00;;;23.00;87.40;;;;;;6313857;27;89115;-68
2023/10/30 02:10:54;;;;;;;8.02;7.28;;;23.00;87.50;;;;;;6324294;27;87273;-68
2023/10/30 02:13:56;;;;;;;7.13;6.40;;;23.00;88.60;;;;;;6330249;27;89492;-69
2023/10/30 02:17:00;;;;;;;7.57;6.88;;;23.00;87.80;;;;;;6319250;27;89006;-69
2023/10/30 02:20:02;;;;;;;7.45;6.75;;;23.00;87.80;;;;;;6318115;27;90263;-69
2023/10/30 02:23:06;;;;;;;7.10;6.50;;;23.00;87.90;;;;;;6315901;27;89158;-69
2023/10/30 02:26:09;;;;;;;7.45;6.75;;;23.00;87.60;;;;;;6326791;27;89446;-69
2023/10/30 02:29:11;;;;;;;7.90;7.10;;;23.00;87.40;;;;;;6319969;27;89080;-69
2023/10/30 02:32:13;;;;;;;7.70;6.90;;;23.00;87.30;;;;;;6319897;27;89066;-69
2023/10/30 02:35:16;;;;;;;7.93;7.13;;;23.00;87.30;;;;;;6326185;27;89410;-69
2023/10/30 02:38:18;;;;;;;7.30;6.60;;;23.00;87.20;;;;;;6313044;27;89037;-69
2023/10/30 02:41:22;;;;;;;7.50;6.75;;;23.00;87.20;;;;;;6321488;27;86747;-72
2023/10/30 02:44:24;;;;;;;8.13;7.28;;;23.00;87.10;;;;;;6326766;27;89614;-72
2023/10/30 02:47:28;;;;;;;7.50;6.70;;;22.90;87.10;;;;;;6320895;27;89119;-73
2023/10/30 02:50:30;;;;;;;7.20;6.50;;;22.90;87.10;;;;;;6318537;27;89566;-72
2023/10/30 02:53:32;;;;;;;6.70;6.10;;;22.90;87.10;;;;;;6323908;27;89155;-71
2023/10/30 02:56:36;;;;;;;8.25;6.80;;;22.90;87.00;;;;;;6326767;27;89119;-71
2023/10/30 02:59:38;;;;;;;7.70;6.90;;;22.90;87.10;;;;;;6330296;27;89133;-71
2023/10/30 03:02:40;;;;;;;6.85;6.18;;;22.90;86.90;;;;;;6328180;27;89132;-71
2023/10/30 03:05:42;;;;;;;9.63;7.10;;;22.90;87.00;;;;;;6317881;27;89215;-68
2023/10/30 03:08:44;;;;;;;7.18;6.47;;;22.90;87.20;;;;;;6330635;27;87982;-69
2023/10/30 03:11:47;;;;;;;6.43;5.80;;;22.90;87.20;;;;;;6331785;27;88801;-69
2023/10/30 03:14:49;;;;;;;6.40;5.80;;;22.90;87.40;;;;;;6332750;27;89277;-70
2023/10/30 03:17:51;;;;;;;6.93;6.22;;;22.90;87.40;;;;;;6314419;27;89112;-70
2023/10/30 03:20:53;;;;;;;7.03;6.32;;;22.80;87.20;;;;;;6318969;27;89864;-71
2023/10/30 03:23:55;;;;;;;7.90;6.32;;;22.80;87.00;;;;;;6327239;27;89157;-69
2023/10/30 03:26:59;;;;;;;6.72;6.03;;;22.90;86.80;;;;;;6330658;27;89366;-68
2023/10/30 03:30:00;;;;;;;6.72;6.03;;;22.90;86.70;;;;;;6329527;27;89383;-68
2023/10/30 03:33:03;;;;;;;6.82;6.13;;;22.90;86.80;;;;;;6329159;27;89057;-69
2023/10/30 03:36:06;;;;;;;6.57;5.97;;;22.90;86.90;;;;;;6317599;27;89263;-69
2023/10/30 03:39:08;;;;;;;6.57;5.97;;;22.80;86.80;;;;;;6320737;27;88958;-69
2023/10/30 03:42:11;;;;;;;6.95;6.25;;;22.80;86.90;;;;;;6325678;27;88157;-69
2023/10/30 03:45:13;;;;;;;7.45;6.75;;;22.80;86.70;;;;;;6329821;27;89318;-69
2023/10/30 03:48:15;;;;;;;7.13;6.43;;;22.80;86.60;;;;;;6334457;27;89265;-69
2023/10/30 03:51:17;;;;;;;6.90;6.20;;;22.80;86.60;;;;;;6325793;27;90264;-68
2023/10/30 03:54:19;;;;;;;6.72;6.00;;;22.90;86.70;;;;;;6318135;27;89790;-69
2023/10/30 03:57:22;;;;;;;7.30;6.45;;;22.80;86.60;;;;;;6313199;27;88022;-69
2023/10/30 04:00:25;;;;;;;6.97;6.28;;;22.80;86.60;;;;;;6327700;27;87934;-69
2023/10/30 04:03:27;;;;;;;7.10;6.32;;;22.80;86.80;;;;;;6324664;27;89128;-69
2023/10/30 04:06:29;;;;;;;6.47;5.75;;;22.80;87.70;;;;;;6330092;27;89446;-70
2023/10/30 04:09:34;;;;;;;7.15;6.40;;;22.80;87.00;;;;;;6319803;27;89465;-70
2023/10/30 04:12:38;;;;;;;6.88;6.18;;;22.80;87.20;;;;;;6321503;27;88379;-69
2023/10/30 04:15:40;;;;;;;7.25;6.13;;;22.80;87.20;;;;;;6330210;27;89170;-69
2023/10/30 04:18:42;;;;;;;7.13;6.03;;;22.80;87.00;;;;;;6316556;27;89195;-69
2023/10/30 04:21:44;;;;;;;6.63;5.93;;;22.70;86.60;;;;;;6311100;27;90119;-71
2023/10/30 04:24:46;;;;;;;5.93;5.32;;;22.80;86.50;;;;;;6328688;27;89055;-70
2023/10/30 04:27:50;;;;;;;6.80;5.70;;;22.70;86.40;;;;;;6322739;27;88967;-70
2023/10/30 04:30:52;;;;;;;6.50;5.88;;;22.70;86.40;;;;;;6325894;27;88809;-70
2023/10/30 04:33:54;;;;;;;6.68;5.75;;;22.80;86.50;;;;;;6326539;27;89397;-70
2023/10/30 04:36:56;;;;;;;5.90;5.30;;;22.70;86.60;;;;;;6315005;27;89104;-70
2023/10/30 04:39:58;;;;;;;5.97;5.40;;;22.70;86.70;;;;;;6318231;27;89171;-69
2023/10/30 04:43:02;;;;;;;6.65;5.70;;;22.70;86.80;;;;;;6331017;27;88944;-69
2023/10/30 04:46:06;;;;;;;6.00;5.38;;;22.70;86.70;;;;;;6331776;27;89445;-68
2023/10/30 04:49:08;;;;;;;5.90;5.30;;;22.70;86.90;;;;;;6315700;27;88729;-69
2023/10/30 04:52:10;;;;;;;6.90;5.68;;;22.70;86.90;;;;;;6328098;27;88911;-68
2023/10/30 04:55:12;;;;;;;6.00;5.40;;;22.70;87.00;;;;;;6316531;27;88999;-68
2023/10/30 04:58:15;;;;;;;5.80;5.20;;;22.70;86.90;;;;;;6324524;27;89405;-68
2023/10/30 05:01:17;;;;;;;6.05;5.45;;;22.70;86.90;;;;;;6325911;27;89032;-68
2023/10/30 05:04:19;;;;;;;6.03;5.43;;;22.70;86.90;;;;;;6316426;27;89061;-68
2023/10/30 05:07:21;;;;;;;5.72;5.22;;;22.80;86.70;;;;;;6326788;27;89094;-68
2023/10/30 05:10:23;;;;;;;5.70;5.15;;;22.90;86.70;;;;;;6329195;27;89172;-68
2023/10/30 05:13:26;;;;;;;5.90;5.40;;;22.90;86.60;;;;;;6317191;27;88353;-69
2023/10/30 05:16:29;;;;;;;6.22;5.63;;;22.90;86.40;;;;;;6321502;27;89069;-68
2023/10/30 05:19:31;;;;;;;6.20;5.60;;;22.90;86.20;;;;;;6331402;27;89553;-68
2023/10/30 05:22:33;;;;;;;5.90;5.35;;;22.90;86.20;;;;;;6327950;27;89978;-69
2023/10/30 05:25:35;;;;;;;6.50;5.72;;;22.90;86.20;;;;;;6329782;27;89110;-69
2023/10/30 05:28:39;;;;;;;6.10;5.45;;;22.90;86.10;;;;;;6315770;27;87958;-69
2023/10/30 05:31:42;;;;;;;7.78;6.05;;;22.90;86.10;;;;;;6322538;27;89318;-68
2023/10/30 05:34:45;;;;;;;6.25;5.65;;;22.90;86.30;;;;;;6319900;27;88055;-69
2023/10/30 05:37:49;;;;;;;5.88;5.18;;;22.90;86.40;;;;;;6320115;27;89693;-68
2023/10/30 05:40:52;;;;;;;8.75;5.82;;;22.90;86.60;;;;;;6319721;27;89055;-68
2023/10/30 05:43:55;;;;;;;6.95;5.93;;;23.00;86.80;;;;;;6331053;27;88320;-69
2023/10/30 05:46:57;;;;;;;6.53;5.93;;;23.00;86.90;;;;;;6321542;27;89076;-68
2023/10/30 05:49:59;;;;;;;7.20;6.38;;;23.00;87.10;;;;;;6319525;27;89235;-68
2023/10/30 05:53:01;;;;;;;7.28;6.32;;;23.00;87.20;;;;;;6320828;27;90007;-68
2023/10/30 05:56:03;;;;;;;6.30;5.70;;;23.00;87.40;;;;;;6328935;27;89187;-69
2023/10/30 05:59:07;;;;;;;7.95;6.35;;;23.00;87.50;;;;;;6325935;27;88209;-68
2023/10/30 06:02:09;;;;;;;8.45;6.70;;;23.00;87.60;;;;;;6312747;27;89686;-67
2023/10/30 06:05:14;;;;;;;8.32;7.07;;;23.00;87.70;;;;;;6317949;27;88928;-71
2023/10/30 06:08:18;;;;;;;13.35;8.55;;;23.10;88.60;;;;;;6317499;27;89064;-72
2023/10/30 06:11:20;;;;;;;12.00;10.18;;;23.10;89.10;;;;;;6322050;27;89411;-72
2023/10/30 06:14:23;;;;;;;13.52;10.90;;;23.20;90.10;;;;;;6315197;27;88483;-70
2023/10/30 06:17:26;;;;;;;15.38;13.77;;;23.30;90.50;;;;;;6322341;27;89406;-70
2023/10/30 06:20:28;;;;;;;13.65;12.30;;;23.30;92.00;;;;;;6324421;27;89083;-71
2023/10/30 06:23:30;;;;;;;12.10;10.88;;;23.40;92.10;;;;;;6313594;27;90057;-68
2023/10/30 06:26:32;;;;;;;11.90;10.80;;;23.40;92.20;;;;;;6321946;27;89110;-70
2023/10/30 06:29:36;;;;;;;11.43;10.25;;;23.50;92.20;;;;;;6327529;27;89211;-69
2023/10/30 06:32:38;;;;;;;11.50;10.38;;;23.50;92.00;;;;;;6333434;27;88935;-70
2023/10/30 06:35:40;;;;;;;11.82;10.52;;;23.60;91.90;;;;;;6332241;27;87875;-72
2023/10/30 06:38:42;;;;;;;12.02;10.38;;;23.60;92.30;;;;;;6326439;27;89172;-71
2023/10/30 06:41:44;;;;;;;10.90;9.90;;;23.60;92.20;;;;;;6325632;27;89198;-70
2023/10/30 06:44:49;;;;;;;11.50;10.30;;;23.70;92.30;;;;;;6325601;27;88549;-70
2023/10/30 06:47:51;;;;;;;12.60;11.32;;;23.70;92.60;;;;;;6321099;27;89138;-70
2023/10/30 06:50:54;;;;;;;157.85;64.80;;;23.70;92.80;;;;;;6329985;27;87816;-71
2023/10/30 06:53:56;;;;;;;82.82;36.85;;;23.70;92.50;;;;;;6327030;27;90018;-69
2023/10/30 06:56:58;;;;;;;75.95;32.78;;;23.70;92.00;;;;;;6331807;27;89166;-70
2023/10/30 07:00:02;;;;;;;59.35;27.35;;;23.70;91.80;;;;;;6321777;27;88871;-70
2023/10/30 07:03:04;;;;;;;52.50;25.73;;;23.70;91.80;;;;;;6325593;27;89378;-70
2023/10/30 07:06:07;;;;;;;47.20;23.50;;;23.70;91.70;;;;;;6321449;27;89072;-70
2023/10/30 07:09:10;;;;;;;41.63;21.77;;;23.70;91.70;;;;;;6316365;27;89239;-69
2023/10/30 07:12:12;;;;;;;41.53;21.60;;;23.70;91.80;;;;;;6333581;27;89103;-69
2023/10/30 07:15:15;;;;;;;37.67;20.60;;;23.70;91.90;;;;;;6327540;27;88263;-68
2023/10/30 07:18:17;;;;;;;36.90;18.67;;;23.70;91.90;;;;;;6324395;27;89295;-68
2023/10/30 07:21:19;;;;;;;34.00;18.25;;;23.70;91.90;;;;;;6324548;27;89049;-70
2023/10/30 07:24:21;;;;;;;32.88;17.95;;;23.70;92.00;;;;;;6322508;27;90115;-69
2023/10/30 07:27:23;;;;;;;31.33;17.45;;;23.70;92.00;;;;;;6318421;27;89140;-69
2023/10/30 07:30:27;;;;;;;28.55;17.35;;;23.70;92.00;;;;;;6332447;27;89816;-68
2023/10/30 07:33:29;;;;;;;27.52;15.95;;;23.70;92.00;;;;;;6326195;27;89090;-69
2023/10/30 07:36:31;;;;;;;27.48;16.10;;;23.70;92.00;;;;;;6324777;27;89067;-68
2023/10/30 07:39:33;;;;;;;25.98;15.32;;;23.70;92.00;;;;;;6330753;27;89124;-68
2023/10/30 07:42:36;;;;;;;28.75;16.27;;;23.70;92.00;;;;;;6315863;27;89450;-69
2023/10/30 07:45:42;;;;;;;35.80;18.55;;;23.70;92.00;;;;;;6324391;27;88484;-70
2023/10/30 07:48:44;;;;;;;30.77;16.70;;;23.70;92.80;;;;;;6329570;27;89390;-69
2023/10/30 07:51:48;;;;;;;29.05;15.32;;;23.70;92.80;;;;;;6328665;27;88293;-69
2023/10/30 07:54:50;;;;;;;30.55;16.70;;;23.70;92.70;;;;;;6319300;27;91283;-69
2023/10/30 07:57:52;;;;;;;26.95;15.32;;;23.70;93.00;;;;;;6322118;27;89287;-68
2023/10/30 08:00:56;;;;;;;26.10;15.48;;;23.70;93.00;;;;;;6326359;27;89071;-68
2023/10/30 08:03:59;;;;;;;24.75;14.90;;;23.70;93.20;;;;;;6312326;27;89116;-68
2023/10/30 08:07:01;;;;;;;24.25;15.05;;;23.80;93.30;;;;;;6327208;27;89061;-68
2023/10/30 08:10:04;;;;;;;24.20;14.98;;;23.70;93.40;;;;;;6319522;27;89090;-67
2023/10/30 08:13:07;;;;;;;23.58;13.93;;;23.80;93.50;;;;;;6325675;27;89331;-67
2023/10/30 08:16:10;;;;;;;21.75;14.25;;;23.80;93.40;;;;;;6317965;27;89095;-67
2023/10/30 08:19:12;;;;;;;22.40;13.95;;;23.80;93.40;;;;;;6312449;27;89143;-69
2023/10/30 08:22:14;;;;;;;20.80;13.60;;;23.80;93.40;;;;;;6315900;27;89467;-68
2023/10/30 08:25:17;;;;;;;22.08;13.45;;;23.90;93.60;;;;;;6315073;27;90021;-68
2023/10/30 08:28:19;;;;;;;24.17;13.85;;;23.90;93.80;;;;;;6323050;27;88044;-67
2023/10/30 08:31:22;;;;;;;20.20;13.13;;;23.90;94.00;;;;;;6318490;27;89280;-67
2023/10/30 08:34:24;;;;;;;21.30;13.38;;;23.90;94.00;;;;;;6313145;27;89451;-69
2023/10/30 08:37:26;;;;;;;18.98;13.40;;;23.90;94.10;;;;;;6328130;27;89042;-69
2023/10/30 08:40:28;;;;;;;18.55;12.75;;;24.00;94.10;;;;;;6328053;27;88661;-70
2023/10/30 08:43:32;;;;;;;19.75;12.95;;;23.90;94.20;;;;;;6320754;27;87894;-68
2023/10/30 08:46:38;;;;;;;16.20;11.98;;;23.90;94.30;;;;;;6324183;27;87146;-69
2023/10/30 08:49:40;;;;;;;18.77;12.52;;;24.00;94.60;;;;;;6318773;27;89294;-69
2023/10/30 08:52:42;;;;;;;18.75;13.15;;;24.00;94.80;;;;;;6318463;27;90251;-68
2023/10/30 08:55:44;;;;;;;21.15;12.77;;;24.00;96.50;;;;;;6309224;27;90022;-68
2023/10/30 08:58:46;;;;;;;19.30;12.52;;;24.00;99.50;;;;;;6322442;27;89470;-68
2023/10/30 09:01:52;;;;;;;17.95;12.38;;;24.10;98.80;;;;;;6310938;27;89072;-69
2023/10/30 09:04:54;;;;;;;16.38;11.75;;;24.10;98.90;;;;;;6329350;27;90208;-68
2023/10/30 09:07:56;;;;;;;17.15;12.65;;;24.10;97.50;;;;;;6317584;27;89087;-69
2023/10/30 09:10:58;;;;;;;248.98;62.72;;;24.20;96.70;;;;;;6317083;27;88001;-67
2023/10/30 09:14:00;;;;;;;181.32;45.92;;;24.20;99.90;;;;;;6317670;27;89143;-67
2023/10/30 09:17:03;;;;;;;113.50;33.05;;;24.30;99.90;;;;;;6316914;27;88322;-68
2023/10/30 09:20:07;;;;;;;89.78;29.08;;;24.40;99.90;;;;;;6330440;27;89129;-68
2023/10/30 09:23:09;;;;;;;68.47;24.58;;;24.50;99.90;;;;;;6328999;27;89929;-67
2023/10/30 09:26:11;;;;;;;56.45;23.55;;;24.50;99.90;;;;;;6325061;27;90008;-67
2023/10/30 09:29:13;;;;;;;50.65;20.05;;;24.50;99.90;;;;;;6317958;27;89198;-66
2023/10/30 09:32:16;;;;;;;42.75;21.60;;;24.60;99.90;;;;;;6318292;27;89053;-67
2023/10/30 09:35:18;;;;;;;41.08;18.88;;;24.60;99.90;;;;;;6329223;27;89056;-67
2023/10/30 09:38:20;;;;;;;45.03;18.80;;;24.70;99.90;;;;;;6325503;27;89064;-67
2023/10/30 09:41:25;;;;;;;42.17;19.13;;;24.70;99.90;;;;;;6318548;27;89026;-68
2023/10/30 09:44:29;;;;;;;36.33;17.20;;;24.70;99.90;;;;;;6319649;27;89014;-69
2023/10/30 09:47:33;;;;;;;36.58;17.58;;;24.60;99.90;;;;;;6312554;27;88316;-69
2023/10/30 09:50:39;;;;;;;33.60;17.17;;;24.60;99.90;;;;;;6319605;27;89311;-69
2023/10/30 09:53:42;;;;;;;32.38;16.38;;;24.50;99.90;;;;;;6323728;27;90544;-68
2023/10/30 09:56:44;;;;;;;34.45;16.13;;;24.50;99.90;;;;;;6323231;27;88971;-68
2023/10/30 09:59:52;;;;;;;29.85;16.05;;;24.50;99.90;;;;;;6326816;27;89206;-68
2023/10/30 10:02:55;;;;;;;30.25;15.55;;;24.50;99.90;;;;;;6329552;27;90001;-65
2023/10/30 10:05:58;;;;;;;23.23;13.07;;;24.40;99.90;;;;;;6326388;27;87929;-68
2023/10/30 10:09:04;;;;;;;23.58;12.75;;;24.40;99.90;;;;;;6314198;27;89004;-67
2023/10/30 10:12:20;;;;;;;22.65;13.23;;;24.30;99.40;;;;;;6319771;27;87982;-67
2023/10/30 10:15:24;;;;;;;21.35;12.32;;;24.30;99.90;;;;;;6320892;27;88467;-67
2023/10/30 10:18:29;;;;;;;15.48;10.15;;;24.30;98.40;;;;;;6325229;27;88249;-68
2023/10/30 10:21:47;;;;;;;14.95;10.52;;;24.30;95.80;;;;;;6330679;27;89060;-68
2023/10/30 10:24:53;;;;;;;19.77;10.70;;;24.20;96.00;;;;;;6305429;27;89349;-68
2023/10/30 10:27:55;;;;;;;17.58;10.63;;;24.20;96.40;;;;;;6317719;27;89962;-68
2023/10/30 10:30:57;;;;;;;16.77;10.45;;;24.20;96.50;;;;;;6316192;27;88338;-68
2023/10/30 10:34:01;;;;;;;16.13;10.60;;;24.30;96.70;;;;;;6315834;27;88943;-68
2023/10/30 10:37:03;;;;;;;20.08;11.50;;;24.20;96.70;;;;;;6329943;27;89334;-68
2023/10/30 10:40:06;;;;;;;17.83;10.88;;;24.20;96.80;;;;;;6311364;27;89310;-68
2023/10/30 10:43:08;;;;;;;18.88;10.60;;;24.20;96.90;;;;;;6308572;27;89048;-68
2023/10/30 10:46:10;;;;;;;16.58;10.70;;;24.20;97.00;;;;;;6318170;27;89003;-68
2023/10/30 10:49:15;;;;;;;17.40;10.80;;;24.30;97.00;;;;;;6308383;27;88326;-68
2023/10/30 10:52:19;;;;;;;15.05;10.50;;;24.20;97.10;;;;;;6321246;27;89244;-68
2023/10/30 10:55:27;;;;;;;14.88;10.25;;;24.20;97.20;;;;;;6316626;27;89155;-68
2023/10/30 10:58:40;;;;;;;17.13;10.60;;;24.30;97.30;;;;;;6323411;27;89984;-68
2023/10/30 11:01:46;;;;;;;16.27;10.40;;;24.20;97.30;;;;;;6312463;27;89066;-68
2023/10/30 11:04:53;;;;;;;13.48;10.10;;;24.20;97.40;;;;;;6319002;27;89134;-67
2023/10/30 11:08:02;;;;;;;14.93;10.38;;;24.20;97.80;;;;;;6312308;27;89067;-68
2023/10/30 11:11:12;;;;;;;13.48;9.75;;;24.30;97.40;;;;;;6320103;27;87948;-68
2023/10/30 11:14:26;;;;;;;14.32;9.88;;;24.30;97.40;;;;;;6313773;27;89178;-68
2023/10/30 11:17:28;;;;;;;13.10;9.45;;;24.20;97.40;;;;;;6331166;27;89386;-68
2023/10/30 11:20:34;;;;;;;13.38;9.73;;;24.20;97.40;;;;;;6310952;27;87216;-68
2023/10/30 11:23:55;;;;;;;15.13;10.02;;;24.30;97.40;;;;;;6316234;27;89073;-67
2023/10/30 11:26:58;;;;;;;13.65;9.75;;;24.30;97.40;;;;;;6315725;27;89010;-68
2023/10/30 11:30:05;;;;;;;14.25;9.57;;;24.30;97.50;;;;;;6324404;27;91703;-68
2023/10/30 11:33:18;;;;;;;13.57;9.65;;;24.30;97.50;;;;;;6326352;27;89022;-68
2023/10/30 11:36:35;;;;;;;13.18;9.13;;;24.30;97.50;;;;;;6316109;27;89102;-68
2023/10/30 11:39:39;;;;;;;13.43;9.52;;;24.30;97.50;;;;;;6317478;27;87634;-68
2023/10/30 11:42:43;;;;;;;13.32;9.25;;;24.30;97.40;;;;;;6321696;27;89369;-68
2023/10/30 11:45:45;;;;;;;13.65;9.88;;;24.20;97.40;;;;;;6323087;27;89132;-67
2023/10/30 11:48:48;;;;;;;12.68;9.30;;;24.20;97.50;;;;;;6324610;27;89464;-68
2023/10/30 11:51:54;;;;;;;12.45;9.07;;;24.30;97.50;;;;;;6328117;27;88503;-68
2023/10/30 11:54:56;;;;;;;11.77;9.00;;;24.30;97.50;;;;;;6313472;27;89126;-68
2023/10/30 11:57:59;;;;;;;13.10;9.10;;;24.30;97.50;;;;;;6332697;27;89062;-68
2023/10/30 12:01:02;;;;;;;13.40;9.32;;;24.20;97.50;;;;;;6309324;27;89907;-68
2023/10/30 12:04:05;;;;;;;12.13;8.77;;;24.30;97.50;;;;;;6321102;27;89208;-68
2023/10/30 12:07:08;;;;;;;12.15;9.18;;;24.30;97.50;;;;;;6324042;27;89185;-68
2023/10/30 12:10:10;;;;;;;11.15;8.93;;;24.30;97.40;;;;;;6332111;27;89405;-68
2023/10/30 12:13:14;;;;;;;11.70;8.80;;;24.30;97.40;;;;;;6311909;27;89463;-68
2023/10/30 12:16:16;;;;;;;12.75;9.15;;;24.20;97.30;;;;;;6333229;27;88961;-68
2023/10/30 12:19:20;;;;;;;10.88;8.45;;;24.30;97.40;;;;;;6328180;27;89189;-68
2023/10/30 12:22:24;;;;;;;11.30;8.77;;;24.20;97.20;;;;;;6327361;27;88404;-68
2023/10/30 12:25:26;;;;;;;10.13;8.50;;;24.20;97.20;;;;;;6319474;27;89333;-68
2023/10/30 12:28:35;;;;;;;11.20;8.70;;;24.20;97.20;;;;;;6334082;27;89221;-68
2023/10/30 12:31:37;;;;;;;11.93;8.55;;;24.30;97.20;;;;;;6330085;27;89755;-68
2023/10/30 12:34:40;;;;;;;11.15;8.48;;;24.20;97.20;;;;;;6333203;27;89020;-69
2023/10/30 12:37:44;;;;;;;11.52;8.40;;;24.20;97.20;;;;;;6320082;27;88192;-68
2023/10/30 12:40:46;;;;;;;10.98;8.13;;;24.30;97.20;;;;;;6320563;27;89038;-68
2023/10/30 12:43:49;;;;;;;9.88;8.20;;;24.20;97.10;;;;;;6327689;27;88878;-68
2023/10/30 12:46:51;;;;;;;10.35;8.30;;;24.20;97.10;;;;;;6320008;27;89118;-68
2023/10/30 12:49:53;;;;;;;11.10;8.35;;;24.20;97.10;;;;;;6313477;27;89022;-68
2023/10/30 12:52:59;;;;;;;10.57;8.02;;;24.20;97.10;;;;;;6332862;27;87290;-68
2023/10/30 12:56:01;;;;;;;9.82;7.78;;;24.20;97.10;;;;;;6322086;27;89087;-69
2023/10/30 12:59:03;;;;;;;9.20;7.63;;;24.20;97.10;;;;;;6328305;27;89166;-68
2023/10/30 13:02:08;;;;;;;10.63;8.18;;;24.20;97.10;;;;;;6331157;27;90030;-68
2023/10/30 13:05:11;;;;;;;10.23;7.85;;;24.10;97.00;;;;;;6333265;27;89185;-68
2023/10/30 13:08:15;;;;;;;9.27;7.53;;;24.20;97.00;;;;;;6333279;27;89046;-68
2023/10/30 13:11:17;;;;;;;10.50;7.50;;;24.20;97.00;;;;;;6307357;27;89237;-68
2023/10/30 13:14:19;;;;;;;9.73;7.25;;;24.20;97.00;;;;;;6323911;27;88065;-68
2023/10/30 13:17:21;;;;;;;11.85;7.95;;;24.10;96.90;;;;;;6328796;27;89528;-68
2023/10/30 13:20:23;;;;;;;9.07;7.47;;;24.10;96.90;;;;;;6311159;27;89189;-68
2023/10/30 13:23:26;;;;;;;10.38;8.20;;;24.10;96.90;;;;;;6333568;27;87217;-68
2023/10/30 13:26:28;;;;;;;9.23;7.35;;;24.10;96.90;;;;;;6319102;27;89702;-68
2023/10/30 13:29:31;;;;;;;9.60;7.53;;;24.20;96.90;;;;;;6330968;27;89044;-67
2023/10/30 13:32:33;;;;;;;8.50;7.03;;;24.10;96.90;;;;;;6313226;27;90267;-68
2023/10/30 13:35:35;;;;;;;8.88;7.30;;;24.10;96.80;;;;;;6309924;27;89142;-67
2023/10/30 13:38:38;;;;;;;9.20;7.43;;;24.10;96.80;;;;;;6327799;27;89029;-67
2023/10/30 13:41:40;;;;;;;8.00;7.05;;;24.10;96.80;;;;;;6318800;27;89193;-68
2023/10/30 13:44:42;;;;;;;7.50;6.80;;;24.10;96.90;;;;;;6318940;27;89105;-68
2023/10/30 13:47:44;;;;;;;8.18;7.30;;;24.10;96.90;;;;;;6329406;27;89378;-68
2023/10/30 13:50:46;;;;;;;7.53;6.78;;;24.10;96.90;;;;;;6315273;27;90687;-68
2023/10/30 13:53:53;;;;;;;8.77;7.32;;;24.10;96.90;;;;;;6318357;27;86356;-67
2023/10/30 13:56:55;;;;;;;8.00;7.20;;;24.10;96.90;;;;;;6326267;27;89231;-68
2023/10/30 13:59:57;;;;;;;9.00;7.50;;;24.10;97.00;;;;;;6314006;27;88966;-68
2023/10/30 14:02:59;;;;;;;7.60;6.60;;;24.10;97.00;;;;;;6329018;27;90023;-68
2023/10/30 14:06:01;;;;;;;8.93;7.13;;;24.10;97.00;;;;;;6318682;27;89086;-68
2023/10/30 14:09:05;;;;;;;8.38;6.57;;;24.10;97.00;;;;;;6331649;27;89077;-68
2023/10/30 14:12:10;;;;;;;8.05;7.15;;;24.10;97.00;;;;;;6331529;27;89163;-67
2023/10/30 14:15:12;;;;;;;7.95;7.15;;;24.10;97.10;;;;;;6321719;27;88970;-67
2023/10/30 14:18:14;;;;;;;7.97;6.53;;;24.10;97.10;;;;;;6329582;27;89138;-68
2023/10/30 14:21:18;;;;;;;7.53;6.65;;;24.10;97.10;;;;;;6317812;27;89035;-68
2023/10/30 14:24:22;;;;;;;7.50;6.70;;;24.10;97.10;;;;;;6322780;27;87591;-68
2023/10/30 14:27:24;;;;;;;7.88;6.63;;;24.10;97.10;;;;;;6326798;27;89016;-68
2023/10/30 14:30:25;;;;;;;8.15;6.78;;;24.10;97.10;;;;;;6330153;27;87933;-68
2023/10/30 14:33:27;;;;;;;7.05;6.35;;;24.10;97.00;;;;;;6319492;27;90146;-68
2023/10/30 14:36:29;;;;;;;8.18;6.63;;;24.10;97.00;;;;;;6320216;27;89056;-68
2023/10/30 14:39:33;;;;;;;7.65;6.65;;;24.00;97.00;;;;;;6310944;27;89100;-68
2023/10/30 14:42:35;;;;;;;8.13;6.32;;;24.10;97.00;;;;;;6309186;27;89636;-68
2023/10/30 14:45:37;;;;;;;7.18;6.45;;;24.10;97.00;;;;;;6320364;27;89423;-68
2023/10/30 14:48:39;;;;;;;7.00;6.20;;;24.10;97.00;;;;;;6309935;27;89165;-68
2023/10/30 14:51:41;;;;;;;7.28;6.43;;;24.10;97.00;;;;;;6322388;27;89087;-68
2023/10/30 14:54:44;;;;;;;8.05;6.55;;;24.10;97.00;;;;;;6324588;27;88278;-68
2023/10/30 14:57:46;;;;;;;6.82;6.15;;;24.10;97.00;;;;;;6321944;27;89062;-68
2023/10/30 15:00:48;;;;;;;7.22;6.45;;;24.00;97.00;;;;;;6317175;27;89407;-67
2023/10/30 15:03:50;;;;;;;6.72;6.00;;;24.10;97.00;;;;;;6331877;27;89967;-68
2023/10/30 15:06:52;;;;;;;7.45;6.40;;;24.10;97.00;;;;;;6325083;27;87935;-69
2023/10/30 15:09:56;;;;;;;6.88;6.18;;;24.10;97.00;;;;;;6310583;27;88570;-68
2023/10/30 15:12:58;;;;;;;6.85;6.15;;;24.10;97.00;;;;;;6323363;27;89248;-68
2023/10/30 15:16:00;;;;;;;7.18;6.30;;;24.10;97.00;;;;;;6327204;27;89190;-68
2023/10/30 15:19:02;;;;;;;6.93;6.22;;;24.10;96.90;;;;;;6335230;27;89063;-68
2023/10/30 15:22:05;;;;;;;6.82;6.13;;;24.10;96.90;;;;;;6334469;27;89096;-68
2023/10/30 15:25:09;;;;;;;6.97;6.10;;;24.10;96.90;;;;;;6321503;27;88336;-68
2023/10/30 15:28:12;;;;;;;7.15;5.88;;;24.10;97.00;;;;;;6323959;27;89179;-68
2023/10/30 15:31:15;;;;;;;6.55;5.90;;;24.10;96.90;;;;;;6331305;27;88294;-67
2023/10/30 15:34:16;;;;;;;7.20;5.82;;;24.10;96.90;;;;;;6320354;27;88813;-68
2023/10/30 15:37:18;;;;;;;6.50;5.75;;;24.10;96.90;;;;;;6327715;27;89409;-68
2023/10/30 15:40:22;;;;;;;6.60;5.90;;;24.10;96.90;;;;;;6327107;27;87614;-68
2023/10/30 15:43:24;;;;;;;6.70;6.00;;;24.10;96.80;;;;;;6314282;27;89468;-68